Aviation Digital Data Service (ADDS)

Output produced by METARs form (1445 UTC 19 April 2019)
found at http://www.aviationweather.gov/metar/data/
 
LPBJ 191400Z 34011G21KT 300V010 9999 BKN026 18/09 Q1015
TAF LPBJ 191103Z 1912/2012 VRB02KT 9999 SCT020 
     TEMPO 1912/1918 4000 SHRA SCT018 FEW025CB 
     PROB40 
     TEMPO 1912/1918 VRB12G25KT 3000 TSRA BKN018 SCT025CB 
     BECMG 2002/2004 04012KT CAVOK 
     TEMPO 2010/2012 05015G28KT
       
LPCS 191430Z 32007KT 9999 -SHRA SCT016 FEW025CB BKN028 16/10 Q1015
TAF LPCS 191400Z 1915/1924 34012KT 9999 FEW018 BKN030 
     TEMPO 1915/1918 5000 SHRA BKN015 FEW020CB 
     PROB30 
     TEMPO 1915/1918 2000 TSRA SCT020CB 
     BECMG 1919/1922 VRB03KT CAVOK
       
LPFR 191430Z 26005KT 200V300 9999 FEW015 FEW028CB 16/12 Q1015
TAF LPFR 191100Z 1912/2012 17005KT 9999 SCT020 
     BECMG 1912/1915 24008KT 
     PROB30 
     TEMPO 1912/1918 5000 SHRA BKN015 FEW020CB 
     BECMG 1916/1918 VRB03KT 
     BECMG 1918/1921 CAVOK 
     BECMG 2000/2003 03008KT 
     BECMG 2009/2012 11008KT 9999 BKN045
       
LPFL 191430Z 18014KT 150V210 9999 -DZ SCT007 SCT014 18/17 Q1022
LPHR 191430Z 14003KT 9999 FEW002 BKN005 18/17 Q1025
TAF LPHR 191400Z 1915/1924 16007KT 8000 SCT002 BKN005 
     TEMPO 1915/1919 2000 BR BKN002 
     PROB30 
     TEMPO 1915/1920 SCT004 BKN008 
     BECMG 1919/1922 0100 FG VV001
       
LPLA 191400Z /////KT 9999 FEW015 BKN035 23/16 Q1026
TAF LPLA 191103Z 1912/2012 VRB05KT 9999 FEW015 
     PROB30 
     TEMPO 2003/2012 4000 -DZ SCT002 BKN008 
     BECMG 2009/2011 09008KT
       
LPPT 191430Z 26004KT 9999 SHRA FEW018 FEW025CB SCT045 13/12 Q1015
TAF LPPT 191100Z 1912/2018 35008KT 9999 SCT020 
     TEMPO 1912/1918 5000 SHRA BKN015 FEW020CB 
     BECMG 1912/1915 VRB05KT 
     BECMG 1915/1917 35008KT 
     BECMG 1918/1921 VRB03KT CAVOK 
     BECMG 2000/2003 04010KT 
     BECMG 2015/2018 33010KT
       
LPMA 191430Z VRB05KT 9999 SCT015 BKN030 17/13 Q1022
TAF LPMA 191100Z 1912/2012 36012KT 9999 SCT015 
     TEMPO 1912/2012 VRB08G18KT SCT013 BKN030 
     PROB30 
     TEMPO 1912/2012 36015G25KT
       
LPMR 191400Z 14006KT 100V160 9999 -SHRA SCT020 BKN030 16/13 Q1015
TAF LPMR 191103Z 1912/2012 VRB02KT 9999 SCT025 
     BECMG 1912/1915 36012KT 
     TEMPO 1912/1918 4000 SHRA SCT020 FEW025CB 
     PROB40 
     TEMPO 1912/1918 VRB12G22KT 3000 TSRA BKN020 SCT025CB 
     BECMG 1918/1920 VRB02KT CAVOK 
     BECMG 2006/2008 04008KT
       
LPMT 191400Z 18003KT 150V210 9999 -SHRA SCT030 FEW032CB 17/11 Q1015
TAF LPMT 191104Z 1912/2012 33008KT 9999 SCT025 
     BECMG 1912/1914 03008KT 
     TEMPO 1912/1918 4000 SHRA SCT020 FEW025CB 
     PROB30 
     TEMPO 1912/1918 VRB12G22KT 3000 TSRA BKN020 SCT025CB 
     BECMG 2008/2010 03013KT CAVOK
       
LPOV 191400Z VRB03KT 9999 SCT018 20/11 Q1014
TAF LPOV 191103Z 1912/2012 VRB02KT 9999 FEW030 
     BECMG 1912/1914 34012KT 
     PROB30 
     TEMPO 1912/1916 VRB12G22KT 4000 SHRA SCT020 FEW025CB 
     BECMG 1919/1921 VRB02KT CAVOK 
     BECMG 2009/2011 34012KT
       
LPPD 191430Z VRB05KT 9999 FEW014 SCT040 19/17 Q1027
TAF AMD LPPD 191235Z 1912/2012 VRB05KT 9999 FEW012 BKN040 
     TEMPO 1912/2003 2000 DZ BR BKN002 
     PROB30 
     TEMPO 1918/2003 0200 DZ FG VV000 
     BECMG 2003/2006 9999 SCT015 BKN030 
     BECMG 2009/2012 03010KT
       
LPPR 191430Z 09010KT 020V120 9999 FEW025 21/10 Q1015
TAF LPPR 191100Z 1912/2012 12008KT 9999 FEW020 BKN040 
     PROB30 
     TEMPO 1912/1916 5000 SHRA BKN015 FEW022CB 
     TEMPO 1913/1918 34010KT 
     BECMG 1918/1921 06008KT CAVOK 
     TEMPO 2000/2009 10008KT
       
LPPS 191430Z 35015KT 9999 FEW015 18/10 Q1021
TAF LPPS 191100Z 1912/2018 01015KT 9999 SCT015 
     TEMPO 1912/2018 SCT015 BKN030 
     PROB30 
     TEMPO 1912/2018 01018G28KT
       
LPAZ 191430Z 21006KT 9999 SCT009 SCT040 19/17 Q1027
TAF LPAZ 191100Z 1912/2018 VRB05KT 9999 FEW012 SCT025 
     TEMPO 1912/2003 5000 BR SCT004 BKN008 
     PROB30 
     TEMPO 1912/2003 2000 DZ BR BKN002 
     BECMG 2006/2009 05012KT SCT015 BKN030